Terminal Aerodrome Forecast
Issued by NWS

Home | Current Version | Previous Version | Text Only | Print | Product List | Glossary On
Versions: 1 2 3 4 5 6 7 8 9 10 11 12 13 14
000
FTUS43 KMQT 022300
TAFIWD
TAF
KIWD 022335Z 0300/0324 23005KT P6SM VCSH SCT100
     FM030300 23005KT P6SM SCT100
     FM031400 21009G16KT P6SM SCT090
     FM032100 21009KT P6SM BKN080
      AMD NOT SKED=

USA.gov is the U.S. government's official web portal to all federal, state and local government web resources and services.